createdAt,value
2018-05-13T00:02:09.067Z,11.13
2018-05-13T00:04:36.559Z,4.67
2018-05-13T00:07:04.018Z,5.90
2018-05-13T00:09:31.502Z,6.70
2018-05-13T00:11:58.967Z,6.53
2018-05-13T00:14:26.514Z,4.37
2018-05-13T00:16:53.974Z,5.87
2018-05-13T00:19:21.526Z,4.80
2018-05-13T00:21:48.990Z,5.63
2018-05-13T00:24:16.530Z,6.33
2018-05-13T00:26:43.986Z,5.30
2018-05-13T00:29:11.479Z,5.20
2018-05-13T00:31:38.948Z,6.13
2018-05-13T00:34:06.431Z,4.77
2018-05-13T00:36:33.927Z,5.33
2018-05-13T00:39:01.509Z,7.83
2018-05-13T00:41:29.157Z,5.53
2018-05-13T00:43:56.712Z,7.73
2018-05-13T00:46:24.197Z,3.83
2018-05-13T00:48:52.235Z,5.43
2018-05-13T00:51:20.036Z,5.37
2018-05-13T00:53:47.519Z,5.33
2018-05-13T00:56:14.999Z,4.73
2018-05-13T00:58:42.480Z,5.17
2018-05-13T01:01:10.010Z,8.17
2018-05-13T01:03:37.539Z,6.83
2018-05-13T01:06:05.064Z,6.90
2018-05-13T01:08:32.559Z,5.00
2018-05-13T01:11:00.079Z,5.13
2018-05-13T01:13:27.556Z,4.30
2018-05-13T01:15:55.063Z,7.27
2018-05-13T01:18:22.530Z,8.13
2018-05-13T01:20:50.027Z,4.70
2018-05-13T01:23:17.565Z,6.30
2018-05-13T01:25:45.135Z,7.60
2018-05-13T01:28:12.627Z,4.10
2018-05-13T01:30:40.106Z,5.80
2018-05-13T01:33:07.598Z,4.37
2018-05-13T01:35:35.091Z,5.33
2018-05-13T01:38:02.550Z,5.30
2018-05-13T01:40:30.031Z,4.57
2018-05-13T01:42:57.548Z,5.50
2018-05-13T01:45:25.026Z,6.30
2018-05-13T01:47:52.550Z,6.57
2018-05-13T01:50:20.111Z,5.00
2018-05-13T01:52:47.587Z,7.27
2018-05-13T01:55:15.134Z,8.97
2018-05-13T01:57:42.686Z,6.40
2018-05-13T02:00:10.167Z,5.73
2018-05-13T02:02:38.598Z,5.40
2018-05-13T02:05:06.186Z,7.83
2018-05-13T02:07:33.659Z,6.03
2018-05-13T02:10:01.210Z,6.10
2018-05-13T02:12:28.766Z,8.00
2018-05-13T02:14:56.323Z,5.40
2018-05-13T02:17:23.794Z,7.47
2018-05-13T02:19:51.342Z,6.67
2018-05-13T02:22:18.826Z,5.80
2018-05-13T02:24:46.362Z,8.03
2018-05-13T02:27:13.847Z,6.60
2018-05-13T02:29:41.323Z,6.23
2018-05-13T02:32:08.839Z,7.23
2018-05-13T02:34:36.300Z,5.77
2018-05-13T02:37:03.850Z,8.17
2018-05-13T02:39:31.310Z,5.40
2018-05-13T02:41:58.870Z,4.50
2018-05-13T02:44:26.456Z,5.73
2018-05-13T02:46:53.986Z,6.23
2018-05-13T02:49:21.507Z,5.97
2018-05-13T02:51:48.999Z,5.07
2018-05-13T02:54:16.458Z,6.83
2018-05-13T02:56:43.994Z,6.97
2018-05-13T02:59:11.493Z,6.13
2018-05-13T03:01:39.008Z,8.33
2018-05-13T03:04:06.607Z,5.07
2018-05-13T03:06:34.110Z,4.50
2018-05-13T03:09:01.592Z,4.53
2018-05-13T03:11:29.131Z,9.63
2018-05-13T03:13:56.598Z,6.03
2018-05-13T03:16:25.122Z,4.43
2018-05-13T03:18:52.675Z,5.37
2018-05-13T03:21:20.142Z,4.00
2018-05-13T03:23:47.673Z,7.67
2018-05-13T03:26:15.131Z,6.07
2018-05-13T03:28:42.619Z,5.27
2018-05-13T03:31:10.131Z,5.20
2018-05-13T03:33:37.635Z,5.23
2018-05-13T03:36:05.106Z,5.87
2018-05-13T03:38:32.631Z,5.83
2018-05-13T03:41:00.090Z,5.83
2018-05-13T03:43:27.669Z,4.60
2018-05-13T03:45:55.230Z,6.33
2018-05-13T03:48:22.792Z,6.30
2018-05-13T03:50:51.238Z,6.93
2018-05-13T03:53:18.735Z,8.00
2018-05-13T03:55:46.291Z,5.20
2018-05-13T03:58:13.814Z,4.13
2018-05-13T04:00:41.270Z,4.67
2018-05-13T04:03:08.766Z,5.33
2018-05-13T04:05:36.302Z,4.77
2018-05-13T04:11:30.524Z,4.70
2018-05-13T04:14:09.938Z,4.50
2018-05-13T04:16:37.438Z,4.57
2018-05-13T04:19:05.892Z,4.20
2018-05-13T04:21:33.418Z,4.67
2018-05-13T04:24:00.918Z,6.30
2018-05-13T04:26:28.482Z,4.93
2018-05-13T04:28:56.014Z,3.77
2018-05-13T04:31:24.503Z,4.03
2018-05-13T04:33:51.982Z,4.43
2018-05-13T04:36:19.540Z,3.83
2018-05-13T04:38:47.097Z,3.83
2018-05-13T04:41:14.562Z,2.70
2018-05-13T04:43:42.051Z,10.00
2018-05-13T04:46:09.582Z,3.20
2018-05-13T04:48:37.126Z,4.03
2018-05-13T04:51:04.695Z,3.27
2018-05-13T04:53:32.250Z,2.57
2018-05-13T04:55:59.810Z,3.27
2018-05-13T04:58:27.390Z,5.57
2018-05-13T05:00:54.934Z,2.97
2018-05-13T05:03:22.399Z,2.90
2018-05-13T05:05:49.882Z,3.83
2018-05-13T05:08:17.344Z,2.50
2018-05-13T05:10:44.827Z,2.43
2018-05-13T05:13:12.347Z,6.13
2018-05-13T05:15:39.799Z,2.87
2018-05-13T05:18:07.323Z,1.90
2018-05-13T05:20:34.810Z,3.43
2018-05-13T05:23:02.420Z,2.40
2018-05-13T05:25:29.858Z,1.47
2018-05-13T05:27:57.452Z,2.17
2018-05-13T05:30:24.901Z,1.77
2018-05-13T05:32:52.375Z,2.20
2018-05-13T05:35:19.872Z,1.40
2018-05-13T05:37:47.413Z,3.67
2018-05-13T05:40:14.977Z,1.57
2018-05-13T05:42:42.443Z,1.47
2018-05-13T05:45:09.928Z,2.30
2018-05-13T05:47:37.451Z,1.40
2018-05-13T05:50:05.003Z,2.70
2018-05-13T05:52:32.560Z,4.17
2018-05-13T05:55:01.195Z,1.60
2018-05-13T05:57:28.658Z,1.30
2018-05-13T05:59:56.244Z,1.80
2018-05-13T06:02:23.735Z,2.23
2018-05-13T06:04:51.198Z,1.70
2018-05-13T06:07:20.487Z,1.87
2018-05-13T06:09:48.039Z,1.70
2018-05-13T06:12:15.588Z,2.13
2018-05-13T06:14:43.055Z,1.10
2018-05-13T06:17:10.536Z,1.53
2018-05-13T06:19:38.093Z,1.17
2018-05-13T06:22:05.515Z,2.20
2018-05-13T06:24:32.995Z,1.93
2018-05-13T06:27:00.555Z,2.53
2018-05-13T06:29:28.071Z,0.83
2018-05-13T06:31:55.634Z,3.23
2018-05-13T06:34:23.134Z,1.70
2018-05-13T06:36:50.615Z,1.83
2018-05-13T06:39:18.078Z,1.20
2018-05-13T06:41:45.565Z,1.30
2018-05-13T06:44:13.082Z,1.60
2018-05-13T06:46:40.585Z,0.90
2018-05-13T06:49:08.047Z,5.60
2018-05-13T06:51:35.543Z,1.23
2018-05-13T06:54:03.047Z,1.27
2018-05-13T06:56:30.571Z,2.13
2018-05-13T06:58:58.035Z,1.50
2018-05-13T07:01:25.519Z,1.10
2018-05-13T07:03:53.051Z,2.43
2018-05-13T07:06:20.534Z,1.90
2018-05-13T07:08:47.994Z,1.07
2018-05-13T07:11:15.470Z,2.03
2018-05-13T07:13:43.078Z,2.17
2018-05-13T07:16:10.555Z,1.33
2018-05-13T07:18:38.039Z,1.50
2018-05-13T07:21:05.543Z,1.97
2018-05-13T07:23:33.069Z,1.30
2018-05-13T07:26:00.545Z,1.73
2018-05-13T07:28:28.060Z,0.80
2018-05-13T07:30:55.570Z,1.33
2018-05-13T07:33:23.049Z,0.63
2018-05-13T07:35:50.531Z,1.10
2018-05-13T07:38:18.046Z,1.20
2018-05-13T07:40:45.510Z,1.10
2018-05-13T07:43:13.080Z,1.00
2018-05-13T07:45:40.551Z,1.00
2018-05-13T07:48:08.050Z,2.00
2018-05-13T07:50:35.542Z,0.67
2018-05-13T07:53:03.102Z,1.17
2018-05-13T07:55:30.671Z,1.07
2018-05-13T07:57:58.227Z,2.30
2018-05-13T08:00:25.664Z,1.70
2018-05-13T08:02:53.147Z,1.77
2018-05-13T08:05:20.642Z,1.20
2018-05-13T08:07:48.151Z,1.50
2018-05-13T08:10:15.611Z,1.40
2018-05-13T08:12:43.195Z,0.93
2018-05-13T08:15:10.750Z,0.80
2018-05-13T08:17:38.243Z,1.20
2018-05-13T08:20:05.735Z,1.03
2018-05-13T08:22:33.238Z,0.90
2018-05-13T08:25:00.804Z,3.20
2018-05-13T08:27:28.322Z,1.60
2018-05-13T08:29:55.815Z,0.80
2018-05-13T08:32:23.283Z,1.20
2018-05-13T08:34:50.899Z,1.10
2018-05-13T08:37:18.385Z,1.50
2018-05-13T08:39:46.030Z,2.63
2018-05-13T08:42:13.560Z,0.90
2018-05-13T08:44:41.138Z,1.10
2018-05-13T08:47:10.449Z,1.20
2018-05-13T08:49:37.940Z,1.10
2018-05-13T08:52:05.414Z,1.13
2018-05-13T08:54:33.061Z,0.90
2018-05-13T08:57:00.591Z,1.27
2018-05-13T08:59:28.089Z,1.17
2018-05-13T09:01:55.560Z,1.10
2018-05-13T09:04:23.067Z,1.00
2018-05-13T09:06:50.598Z,1.30
2018-05-13T09:09:18.093Z,0.97
2018-05-13T09:11:45.559Z,1.30
2018-05-13T09:14:13.110Z,1.10
2018-05-13T09:16:40.606Z,1.93
2018-05-13T09:19:08.210Z,2.07
2018-05-13T09:21:35.666Z,1.30
2018-05-13T09:24:03.150Z,1.73
2018-05-13T09:26:30.718Z,1.33
2018-05-13T09:29:01.468Z,1.57
2018-05-13T09:31:29.098Z,3.10
2018-05-13T09:33:56.718Z,1.60
2018-05-13T09:36:24.205Z,1.57
2018-05-13T09:38:51.730Z,1.63
2018-05-13T09:41:19.218Z,2.33
2018-05-13T09:43:46.706Z,1.43
2018-05-13T09:46:15.111Z,1.37
2018-05-13T09:48:42.591Z,1.77
2018-05-13T09:51:10.202Z,2.13
2018-05-13T09:53:37.784Z,2.23
2018-05-13T09:56:05.300Z,1.77
2018-05-13T09:58:32.765Z,1.60
2018-05-13T10:01:00.282Z,2.83
2018-05-13T10:03:27.788Z,1.77
2018-05-13T10:05:55.387Z,1.83
2018-05-13T10:08:22.894Z,1.23
2018-05-13T10:10:50.460Z,1.50
2018-05-13T10:13:19.014Z,1.03
2018-05-13T10:15:46.503Z,1.60
2018-05-13T10:18:13.983Z,1.53
2018-05-13T10:20:41.477Z,1.47
2018-05-13T10:23:08.952Z,2.27
2018-05-13T10:25:36.551Z,2.70
2018-05-13T10:28:04.075Z,1.87
2018-05-13T10:30:31.646Z,2.40
2018-05-13T10:32:59.111Z,1.80
2018-05-13T10:35:26.859Z,1.57
2018-05-13T10:37:54.476Z,1.60
2018-05-13T10:40:21.955Z,1.43
2018-05-13T10:42:49.520Z,2.70
2018-05-13T10:45:16.974Z,1.30
2018-05-13T10:47:44.454Z,2.93
2018-05-13T10:50:11.923Z,3.53
2018-05-13T10:52:39.427Z,1.30
2018-05-13T10:55:06.920Z,4.30
2018-05-13T10:57:34.458Z,1.90
2018-05-13T11:00:01.947Z,3.17
2018-05-13T11:02:29.451Z,1.70
2018-05-13T11:04:56.966Z,2.73
2018-05-13T11:07:24.498Z,1.67
2018-05-13T11:09:51.987Z,1.80
2018-05-13T11:12:19.519Z,1.77
2018-05-13T11:14:46.993Z,2.60
2018-05-13T11:17:14.489Z,1.70
2018-05-13T11:19:41.966Z,2.07
2018-05-13T11:22:09.459Z,2.30
2018-05-13T11:24:36.932Z,1.30
2018-05-13T11:27:04.503Z,2.17
2018-05-13T11:29:31.963Z,2.10
2018-05-13T11:31:59.450Z,1.43
2018-05-13T11:34:26.943Z,1.93
2018-05-13T11:36:54.471Z,1.40
2018-05-13T11:39:21.949Z,1.80
2018-05-13T11:41:49.422Z,2.30
2018-05-13T11:44:16.926Z,1.70
2018-05-13T11:46:44.450Z,0.97
2018-05-13T11:49:11.954Z,2.57
2018-05-13T11:51:39.443Z,2.53
2018-05-13T11:54:06.966Z,1.93
2018-05-13T11:56:34.521Z,1.60
2018-05-13T11:59:01.968Z,1.80
2018-05-13T12:01:29.457Z,1.60
2018-05-13T12:03:56.957Z,1.50
2018-05-13T12:06:24.450Z,1.73
2018-05-13T12:08:51.938Z,1.70
2018-05-13T12:11:19.438Z,2.00
2018-05-13T12:13:47.066Z,1.17
2018-05-13T12:16:14.594Z,1.90
2018-05-13T12:18:42.081Z,0.90
2018-05-13T12:21:09.612Z,1.87
2018-05-13T12:23:37.139Z,2.60
2018-05-13T12:26:04.609Z,2.47
2018-05-13T12:28:32.275Z,2.63
2018-05-13T12:30:59.738Z,2.50
2018-05-13T12:33:27.233Z,2.00
2018-05-13T12:35:54.695Z,1.20
2018-05-13T12:38:22.196Z,1.80
2018-05-13T12:40:49.665Z,1.10
2018-05-13T12:43:17.219Z,1.67
2018-05-13T12:45:44.778Z,2.07
2018-05-13T12:48:12.334Z,1.63
2018-05-13T12:50:39.799Z,1.10
2018-05-13T12:53:07.270Z,1.20
2018-05-13T12:55:34.816Z,1.23
2018-05-13T12:58:02.278Z,1.20
2018-05-13T13:00:29.830Z,2.10
2018-05-13T13:02:57.290Z,1.30
2018-05-13T13:05:24.778Z,1.00
2018-05-13T13:07:52.242Z,1.10
2018-05-13T13:10:19.755Z,2.20
2018-05-13T13:12:47.230Z,1.93
2018-05-13T13:15:14.779Z,1.10
2018-05-13T13:17:42.246Z,1.67
2018-05-13T13:20:09.815Z,3.00
2018-05-13T13:22:37.285Z,1.40
2018-05-13T13:25:04.798Z,2.50
2018-05-13T13:27:32.263Z,1.53
2018-05-13T13:29:59.752Z,1.93
2018-05-13T13:32:27.244Z,1.70
2018-05-13T13:34:54.861Z,1.93
2018-05-13T13:37:22.352Z,2.10
2018-05-13T13:39:49.838Z,1.37
2018-05-13T13:42:17.339Z,1.60
2018-05-13T13:44:44.839Z,3.37
2018-05-13T13:47:12.361Z,1.43
2018-05-13T13:49:39.921Z,1.07
2018-05-13T13:52:07.378Z,1.90
2018-05-13T13:54:36.979Z,0.97
2018-05-13T13:57:04.530Z,1.73
2018-05-13T13:59:32.037Z,1.70
2018-05-13T14:01:59.522Z,1.47
2018-05-13T14:04:27.038Z,1.70
2018-05-13T14:06:54.526Z,1.67
2018-05-13T14:09:22.006Z,1.23
2018-05-13T14:11:49.499Z,1.40
2018-05-13T14:14:17.022Z,1.50
2018-05-13T14:16:44.527Z,1.13
2018-05-13T14:19:11.994Z,1.90
2018-05-13T14:21:39.559Z,1.30
2018-05-13T14:24:07.920Z,2.00
2018-05-13T14:26:35.405Z,1.53
2018-05-13T14:29:02.926Z,1.80
2018-05-13T14:31:30.415Z,1.33
2018-05-13T14:33:57.880Z,2.30
2018-05-13T14:36:25.378Z,1.43
2018-05-13T14:38:52.835Z,1.20
2018-05-13T14:41:20.340Z,1.33
2018-05-13T14:43:47.806Z,1.57
2018-05-13T14:46:16.242Z,2.57
2018-05-13T14:48:43.703Z,2.43
2018-05-13T14:51:11.228Z,1.87
2018-05-13T14:53:38.715Z,1.60
2018-05-13T14:56:06.192Z,1.93
2018-05-13T14:58:33.718Z,1.73
2018-05-13T15:01:01.300Z,2.30
2018-05-13T15:03:28.775Z,2.17
2018-05-13T15:05:56.275Z,1.97
2018-05-13T15:08:23.780Z,2.57
2018-05-13T15:10:51.282Z,2.47
2018-05-13T15:13:19.164Z,2.37
2018-05-13T15:15:46.658Z,3.47
2018-05-13T15:18:14.142Z,2.27
2018-05-13T15:20:41.691Z,2.97
2018-05-13T15:23:09.212Z,2.50
2018-05-13T15:25:36.786Z,2.60
2018-05-13T15:28:04.279Z,2.50
2018-05-13T15:30:31.811Z,1.93
2018-05-13T15:32:59.402Z,2.77
2018-05-13T15:35:26.964Z,2.40
2018-05-13T15:37:54.500Z,1.70
2018-05-13T15:40:21.988Z,1.77
2018-05-13T15:42:49.756Z,2.30
2018-05-13T15:45:17.295Z,2.40
2018-05-13T15:47:44.801Z,2.03
2018-05-13T15:50:12.271Z,2.23
2018-05-13T15:52:39.786Z,2.53
2018-05-13T15:55:07.364Z,3.13
2018-05-13T15:57:34.813Z,1.90
2018-05-13T16:00:02.290Z,2.40
2018-05-13T16:02:29.829Z,2.10
2018-05-13T16:04:57.322Z,2.40
2018-05-13T16:07:24.815Z,2.10
2018-05-13T16:09:52.301Z,2.47
2018-05-13T16:12:19.876Z,3.00
2018-05-13T16:14:47.307Z,3.03
2018-05-13T16:17:14.834Z,3.70
2018-05-13T16:19:42.303Z,2.97
2018-05-13T16:22:09.813Z,3.23
2018-05-13T16:24:37.383Z,2.00
2018-05-13T16:27:04.857Z,4.77
2018-05-13T16:29:32.343Z,2.23
2018-05-13T16:31:59.809Z,3.20
2018-05-13T16:34:27.320Z,2.27
2018-05-13T16:36:54.823Z,3.77
2018-05-13T16:39:23.327Z,2.27
2018-05-13T16:41:50.800Z,2.23
2018-05-13T16:44:18.295Z,2.17
2018-05-13T16:46:45.758Z,2.50
2018-05-13T16:49:13.360Z,2.70
2018-05-13T16:51:40.838Z,2.80
2018-05-13T16:54:08.327Z,2.53
2018-05-13T16:56:36.799Z,2.83
2018-05-13T16:59:04.447Z,2.50
2018-05-13T17:01:31.943Z,2.40
2018-05-13T17:03:59.439Z,2.27
2018-05-13T17:06:26.972Z,1.70
2018-05-13T17:08:54.466Z,1.57
2018-05-13T17:11:21.988Z,2.17
2018-05-13T17:13:49.475Z,1.80
2018-05-13T17:16:16.958Z,2.07
2018-05-13T17:18:44.464Z,2.13
2018-05-13T17:21:11.946Z,3.13
2018-05-13T17:23:39.523Z,2.90
2018-05-13T17:26:06.958Z,2.37
2018-05-13T17:28:34.459Z,3.67
2018-05-13T17:31:01.955Z,2.00
2018-05-13T17:33:29.448Z,1.97
2018-05-13T17:35:56.963Z,2.13
2018-05-13T17:38:24.506Z,3.87
2018-05-13T17:40:52.038Z,2.93
2018-05-13T17:43:19.510Z,1.93
2018-05-13T17:45:46.994Z,2.23
2018-05-13T17:48:14.486Z,2.30
2018-05-13T17:50:41.982Z,1.87
2018-05-13T17:53:09.463Z,2.20
2018-05-13T17:55:37.021Z,2.33
2018-05-13T17:58:04.495Z,4.10
2018-05-13T18:00:32.065Z,2.80
2018-05-13T18:02:59.579Z,2.83
2018-05-13T18:05:27.086Z,3.23
2018-05-13T18:07:54.577Z,6.27
2018-05-13T18:10:22.111Z,3.17
2018-05-13T18:12:49.568Z,3.83
2018-05-13T18:15:17.050Z,3.30
2018-05-13T18:17:44.562Z,2.77
2018-05-13T18:20:12.110Z,3.73
2018-05-13T18:22:41.645Z,4.60
2018-05-13T18:25:09.142Z,3.30
2018-05-13T18:27:36.622Z,3.17
2018-05-13T18:30:04.114Z,4.10
2018-05-13T18:32:31.581Z,3.07
2018-05-13T18:34:59.131Z,3.07
2018-05-13T18:37:26.678Z,3.20
2018-05-13T18:39:54.172Z,3.40
2018-05-13T18:42:21.766Z,3.10
2018-05-13T18:44:49.359Z,4.77
2018-05-13T18:47:16.928Z,3.40
2018-05-13T18:49:44.405Z,3.40
2018-05-13T18:52:11.895Z,3.67
2018-05-13T18:54:39.460Z,3.27
2018-05-13T18:57:06.975Z,3.50
2018-05-13T18:59:34.470Z,5.30
2018-05-13T19:02:01.975Z,3.53
2018-05-13T19:04:29.450Z,4.33
2018-05-13T19:06:56.939Z,2.53
2018-05-13T19:09:24.411Z,4.77
2018-05-13T19:11:51.924Z,3.50
2018-05-13T19:14:19.459Z,5.27
2018-05-13T19:16:46.971Z,3.97
2018-05-13T19:19:14.447Z,4.80
2018-05-13T19:21:41.971Z,3.70
2018-05-13T19:24:09.592Z,4.20
2018-05-13T19:26:37.058Z,3.50
2018-05-13T19:29:04.523Z,3.63
2018-05-13T19:31:32.048Z,2.97
2018-05-13T19:33:59.541Z,4.13
2018-05-13T19:36:27.035Z,4.13
2018-05-13T19:38:54.574Z,2.40
2018-05-13T19:41:22.060Z,3.43
2018-05-13T19:43:49.592Z,2.60
2018-05-13T19:46:17.054Z,2.73
2018-05-13T19:48:44.654Z,2.87
2018-05-13T19:51:12.094Z,2.70
2018-05-13T19:53:39.589Z,3.37
2018-05-13T19:56:07.084Z,7.67
2018-05-13T19:58:34.577Z,3.17
2018-05-13T20:01:02.153Z,2.87
2018-05-13T20:03:29.947Z,2.80
2018-05-13T20:05:57.130Z,2.53
2018-05-13T20:08:24.700Z,2.80
2018-05-13T20:10:52.210Z,2.17
2018-05-13T20:13:19.698Z,2.77
2018-05-13T20:15:47.222Z,2.03
2018-05-13T20:18:14.703Z,2.80
2018-05-13T20:20:42.164Z,2.93
2018-05-13T20:23:21.985Z,3.93
2018-05-13T20:25:49.455Z,2.10
2018-05-13T20:28:16.934Z,1.87
2018-05-13T20:30:44.429Z,1.83
2018-05-13T20:33:11.930Z,2.30
2018-05-13T20:35:39.507Z,1.80
2018-05-13T20:38:06.994Z,4.97
2018-05-13T20:40:34.486Z,3.03
2018-05-13T20:43:01.975Z,2.20
2018-05-13T20:45:29.466Z,2.17
2018-05-13T20:47:56.965Z,1.93
2018-05-13T20:50:24.431Z,1.80
2018-05-13T20:52:51.894Z,2.43
2018-05-13T20:55:19.381Z,2.20
2018-05-13T20:57:46.905Z,1.20
2018-05-13T21:00:14.470Z,2.87
2018-05-13T21:02:42.028Z,2.23
2018-05-13T21:05:09.563Z,1.70
2018-05-13T21:07:37.018Z,2.03
2018-05-13T21:10:04.522Z,1.40
2018-05-13T21:12:31.990Z,1.50
2018-05-13T21:14:59.502Z,1.30
2018-05-13T21:17:27.079Z,1.20
2018-05-13T21:19:54.647Z,1.17
2018-05-13T21:22:22.204Z,2.23
2018-05-13T21:24:49.754Z,1.23
2018-05-13T21:27:17.314Z,1.27
2018-05-13T21:29:44.879Z,1.50
2018-05-13T21:32:12.438Z,1.73
2018-05-13T21:34:39.937Z,1.30
2018-05-13T21:37:07.437Z,2.03
2018-05-13T21:39:34.929Z,2.33
2018-05-13T21:42:02.405Z,1.63
2018-05-13T21:44:29.951Z,1.10
2018-05-13T21:46:57.416Z,1.63
2018-05-13T21:49:24.899Z,1.13
2018-05-13T21:51:52.374Z,1.23
2018-05-13T21:54:19.865Z,0.80
2018-05-13T21:56:47.346Z,1.10
2018-05-13T21:59:14.875Z,2.47
2018-05-13T22:01:42.371Z,0.93
2018-05-13T22:04:09.859Z,2.10
2018-05-13T22:06:37.342Z,1.20
2018-05-13T22:09:05.718Z,1.57
2018-05-13T22:11:33.199Z,0.83
2018-05-13T22:14:00.658Z,1.77
2018-05-13T22:16:28.255Z,1.00
2018-05-13T22:18:55.715Z,1.83
2018-05-13T22:21:25.366Z,1.13
2018-05-13T22:23:52.877Z,0.87
2018-05-13T22:26:20.434Z,1.57
2018-05-13T22:28:48.052Z,0.70
2018-05-13T22:31:15.611Z,1.30
2018-05-13T22:33:43.179Z,0.70
2018-05-13T22:36:10.750Z,1.37
2018-05-13T22:38:38.295Z,1.20
2018-05-13T22:41:05.854Z,3.90
2018-05-13T22:43:33.412Z,1.00
2018-05-13T22:46:00.902Z,1.53
2018-05-13T22:48:28.382Z,1.10
2018-05-13T22:50:55.878Z,1.03
2018-05-13T22:53:23.336Z,1.70
2018-05-13T22:55:50.910Z,0.70
2018-05-13T22:58:18.812Z,1.43
2018-05-13T23:00:46.278Z,1.17
2018-05-13T23:03:13.754Z,0.80
2018-05-13T23:05:41.448Z,0.80
2018-05-13T23:08:08.938Z,0.80
2018-05-13T23:10:36.419Z,1.70
2018-05-13T23:13:04.069Z,0.83
2018-05-13T23:15:31.550Z,1.17
2018-05-13T23:17:59.036Z,0.90
2018-05-13T23:20:26.523Z,0.60
2018-05-13T23:22:54.090Z,1.70
2018-05-13T23:25:21.546Z,0.87
2018-05-13T23:27:49.031Z,0.60
2018-05-13T23:30:16.550Z,1.37
2018-05-13T23:32:44.113Z,0.80
2018-05-13T23:35:11.597Z,1.47
2018-05-13T23:37:39.127Z,1.40
2018-05-13T23:40:06.674Z,1.77
2018-05-13T23:42:34.159Z,1.20
2018-05-13T23:45:01.619Z,0.80
2018-05-13T23:47:29.102Z,1.33
2018-05-13T23:49:56.590Z,0.87
2018-05-13T23:52:24.078Z,1.50
2018-05-13T23:54:51.582Z,1.50
2018-05-13T23:57:19.082Z,1.17
2018-05-13T23:59:46.553Z,1.27
